createdAt,value
2022-10-23T00:01:16.286Z,100.00
2022-10-23T00:03:43.178Z,100.00
2022-10-23T00:06:09.859Z,100.00
2022-10-23T00:08:36.472Z,100.00
2022-10-23T00:11:09.748Z,100.00
2022-10-23T00:13:36.197Z,100.00
2022-10-23T00:16:02.865Z,100.00
2022-10-23T00:18:29.316Z,100.00
2022-10-23T00:20:56.261Z,100.00
2022-10-23T00:23:22.815Z,100.00
2022-10-23T00:25:49.426Z,100.00
2022-10-23T00:28:15.879Z,100.00
2022-10-23T00:30:42.477Z,100.00
2022-10-23T00:33:10.227Z,100.00
2022-10-23T00:35:40.556Z,100.00
2022-10-23T00:38:07.790Z,100.00
2022-10-23T00:40:35.345Z,100.00
2022-10-23T00:43:02.262Z,100.00
2022-10-23T00:45:33.575Z,100.00
2022-10-23T00:48:01.373Z,100.00
2022-10-23T00:50:30.400Z,100.00
2022-10-23T00:52:59.956Z,100.00
2022-10-23T00:55:26.959Z,100.00
2022-10-23T00:57:53.619Z,100.00
2022-10-23T01:00:40.298Z,100.00
2022-10-23T01:03:07.051Z,100.00
2022-10-23T01:05:41.532Z,100.00
2022-10-23T01:08:15.408Z,100.00
2022-10-23T01:10:47.801Z,100.00
2022-10-23T01:13:43.438Z,100.00
2022-10-23T01:16:24.184Z,100.00
2022-10-23T01:19:17.049Z,100.00
2022-10-23T01:22:13.418Z,100.00
2022-10-23T01:24:46.047Z,100.00
2022-10-23T01:27:34.589Z,100.00
2022-10-23T01:30:03.650Z,100.00
2022-10-23T01:32:48.242Z,100.00
2022-10-23T01:35:24.057Z,100.00
2022-10-23T01:38:18.390Z,100.00
2022-10-23T01:40:49.442Z,100.00
2022-10-23T01:43:20.364Z,100.00
2022-10-23T01:45:50.972Z,100.00
2022-10-23T01:48:20.499Z,100.00
2022-10-23T01:50:47.351Z,100.00
2022-10-23T01:53:13.852Z,100.00
2022-10-23T01:58:13.955Z,100.00
2022-10-23T02:00:41.513Z,100.00
2022-10-23T02:03:08.936Z,100.00
2022-10-23T02:05:35.709Z,100.00
2022-10-23T02:08:02.854Z,100.00
2022-10-23T02:10:42.023Z,100.00
2022-10-23T02:13:26.282Z,100.00
2022-10-23T02:16:04.049Z,100.00
2022-10-23T02:19:12.382Z,100.00
2022-10-23T02:21:48.659Z,100.00
2022-10-23T02:24:17.974Z,100.00
2022-10-23T02:27:05.222Z,100.00
2022-10-23T02:29:35.782Z,100.00
2022-10-23T02:32:02.322Z,100.00
2022-10-23T02:34:28.802Z,100.00
2022-10-23T02:36:55.272Z,100.00
2022-10-23T02:39:24.140Z,100.00
2022-10-23T02:41:56.435Z,100.00
2022-10-23T02:44:28.671Z,100.00
2022-10-23T02:47:33.691Z,100.00
2022-10-23T02:50:05.800Z,100.00
2022-10-23T02:53:03.605Z,100.00
2022-10-23T02:55:45.215Z,100.00
2022-10-23T02:58:28.417Z,100.00
2022-10-23T03:01:00.119Z,100.00
2022-10-23T03:03:36.533Z,100.00
2022-10-23T03:06:03.299Z,100.00
2022-10-23T03:08:29.760Z,100.00
2022-10-23T03:10:56.330Z,100.00
2022-10-23T03:13:23.372Z,100.00
2022-10-23T03:15:49.811Z,100.00
2022-10-23T03:18:16.271Z,100.00
2022-10-23T03:20:42.700Z,100.00
2022-10-23T03:23:12.440Z,100.00
2022-10-23T03:25:38.948Z,100.00
2022-10-23T03:28:05.380Z,100.00
2022-10-23T03:30:32.046Z,100.00
2022-10-23T03:32:58.599Z,100.00
2022-10-23T03:35:25.029Z,100.00
2022-10-23T03:37:51.461Z,100.00
2022-10-23T03:40:17.922Z,100.00
2022-10-23T03:42:44.338Z,100.00
2022-10-23T03:45:10.763Z,100.00
2022-10-23T03:47:41.347Z,100.00
2022-10-23T03:50:09.477Z,100.00
2022-10-23T03:52:35.913Z,100.00
2022-10-23T03:55:02.634Z,100.00
2022-10-23T03:57:29.086Z,100.00
2022-10-23T03:59:55.590Z,100.00
2022-10-23T04:02:22.181Z,100.00
2022-10-23T04:04:48.684Z,100.00
2022-10-23T04:07:15.127Z,100.00
2022-10-23T04:09:41.619Z,100.00
2022-10-23T04:12:09.334Z,100.00
2022-10-23T04:14:35.772Z,100.00
2022-10-23T04:17:02.232Z,100.00
2022-10-23T04:19:28.657Z,100.00
2022-10-23T04:21:55.163Z,100.00
2022-10-23T04:24:21.620Z,100.00
2022-10-23T04:26:48.048Z,100.00
2022-10-23T04:29:14.494Z,100.00
2022-10-23T04:31:40.950Z,100.00
2022-10-23T04:34:07.396Z,100.00
2022-10-23T04:36:33.948Z,100.00
2022-10-23T04:39:00.478Z,100.00
2022-10-23T04:41:27.054Z,100.00
2022-10-23T04:43:53.470Z,100.00
2022-10-23T04:46:20.065Z,100.00
2022-10-23T04:48:46.497Z,100.00
2022-10-23T04:51:16.040Z,100.00
2022-10-23T04:53:42.495Z,100.00
2022-10-23T04:56:13.862Z,100.00
2022-10-23T04:58:41.279Z,100.00
2022-10-23T05:01:10.609Z,100.00
2022-10-23T05:03:38.041Z,100.00
2022-10-23T05:06:05.394Z,100.00
2022-10-23T05:08:32.356Z,100.00
2022-10-23T05:10:58.923Z,100.00
2022-10-23T05:13:25.486Z,100.00
2022-10-23T05:15:52.242Z,100.00
2022-10-23T05:18:23.251Z,100.00
2022-10-23T05:20:53.480Z,100.00
2022-10-23T05:23:21.234Z,100.00
2022-10-23T05:25:47.662Z,100.00
2022-10-23T05:28:14.129Z,100.00
2022-10-23T05:30:40.589Z,100.00
2022-10-23T05:33:07.032Z,100.00
2022-10-23T05:35:33.774Z,100.00
2022-10-23T05:38:02.044Z,100.00
2022-10-23T05:40:28.611Z,100.00
2022-10-23T05:42:55.249Z,100.00
2022-10-23T05:45:21.882Z,100.00
2022-10-23T05:47:49.240Z,100.00
2022-10-23T05:50:15.845Z,100.00
2022-10-23T05:52:42.682Z,100.00
2022-10-23T05:55:09.860Z,100.00
2022-10-23T05:57:36.415Z,100.00
2022-10-23T06:00:03.241Z,100.00
2022-10-23T06:02:29.770Z,100.00
2022-10-23T06:04:56.301Z,100.00
2022-10-23T06:07:27.705Z,100.00
2022-10-23T06:09:56.420Z,100.00
2022-10-23T06:12:23.273Z,100.00
2022-10-23T06:14:50.978Z,100.00
2022-10-23T06:17:18.418Z,100.00
2022-10-23T06:19:46.118Z,100.00
2022-10-23T06:22:12.684Z,100.00
2022-10-23T06:24:39.188Z,100.00
2022-10-23T06:27:05.693Z,100.00
2022-10-23T06:29:35.470Z,100.00
2022-10-23T06:32:02.252Z,100.00
2022-10-23T06:34:28.706Z,100.00
2022-10-23T06:36:55.166Z,100.00
2022-10-23T06:39:22.198Z,100.00
2022-10-23T06:41:48.673Z,100.00
2022-10-23T06:44:15.132Z,100.00
2022-10-23T06:46:41.627Z,100.00
2022-10-23T06:49:08.137Z,100.00
2022-10-23T06:51:34.600Z,100.00
2022-10-23T06:54:01.070Z,100.00
2022-10-23T06:56:29.306Z,100.00
2022-10-23T06:58:56.569Z,100.00
2022-10-23T07:01:23.120Z,100.00
2022-10-23T07:03:49.669Z,100.00
2022-10-23T07:06:16.162Z,100.00
2022-10-23T07:08:42.651Z,100.00
2022-10-23T07:11:11.079Z,100.00
2022-10-23T07:13:38.631Z,100.00
2022-10-23T07:16:32.049Z,100.00
2022-10-23T07:19:01.098Z,100.00
2022-10-23T07:21:29.822Z,100.00
2022-10-23T07:23:57.846Z,100.00
2022-10-23T07:26:24.704Z,100.00
2022-10-23T07:28:55.057Z,100.00
2022-10-23T07:31:28.028Z,100.00
2022-10-23T07:33:55.964Z,100.00
2022-10-23T07:36:22.513Z,100.00
2022-10-23T07:38:49.045Z,100.00
2022-10-23T07:41:16.017Z,100.00
2022-10-23T07:43:42.583Z,100.00
2022-10-23T07:46:10.004Z,100.00
2022-10-23T07:48:38.258Z,100.00
2022-10-23T07:51:08.570Z,100.00
2022-10-23T07:53:53.713Z,100.00
2022-10-23T07:56:26.339Z,100.00
2022-10-23T07:58:56.028Z,100.00
2022-10-23T08:01:33.233Z,100.00
2022-10-23T08:04:00.384Z,100.00
2022-10-23T08:06:27.156Z,100.00
2022-10-23T08:08:53.663Z,100.00
2022-10-23T08:11:26.706Z,100.00
2022-10-23T08:13:54.501Z,100.00
2022-10-23T08:16:21.771Z,100.00
2022-10-23T08:18:49.577Z,100.00
2022-10-23T08:21:16.986Z,100.00
2022-10-23T08:23:44.144Z,100.00
2022-10-23T08:26:11.471Z,100.00
2022-10-23T08:28:39.221Z,99.94
2022-10-23T08:31:18.263Z,100.00
2022-10-23T08:33:44.948Z,100.00
2022-10-23T08:36:26.050Z,98.86
2022-10-23T08:38:54.448Z,99.38
2022-10-23T08:42:06.053Z,99.71
2022-10-23T08:44:48.765Z,98.54
2022-10-23T08:47:19.967Z,98.26
2022-10-23T08:49:50.246Z,98.47
2022-10-23T08:52:19.733Z,97.96
2022-10-23T08:54:54.628Z,97.50
2022-10-23T08:57:24.069Z,97.72
2022-10-23T08:59:59.320Z,97.97
2022-10-23T09:02:30.708Z,97.15
2022-10-23T09:04:58.100Z,96.65
2022-10-23T09:07:42.134Z,97.12
2022-10-23T09:10:24.039Z,97.22
2022-10-23T09:12:50.620Z,97.27
2022-10-23T09:15:28.390Z,97.71
2022-10-23T09:18:04.784Z,98.17
2022-10-23T09:20:35.580Z,98.85
2022-10-23T09:23:08.040Z,98.20
2022-10-23T09:25:37.859Z,98.69
2022-10-23T09:28:05.702Z,98.70
2022-10-23T09:30:39.434Z,98.74
2022-10-23T09:33:15.155Z,97.88
2022-10-23T09:35:53.324Z,97.59
2022-10-23T09:38:36.208Z,97.02
2022-10-23T09:41:28.983Z,96.54
2022-10-23T09:44:07.693Z,97.14
2022-10-23T09:46:45.716Z,95.88
2022-10-23T09:49:22.830Z,96.17
2022-10-23T09:51:54.417Z,95.50
2022-10-23T09:54:24.063Z,95.11
2022-10-23T09:56:51.595Z,92.43
2022-10-23T09:59:24.284Z,91.85
2022-10-23T10:01:51.993Z,90.08
2022-10-23T10:04:18.948Z,91.13
2022-10-23T10:06:45.601Z,91.28
2022-10-23T10:09:14.170Z,91.29
2022-10-23T10:11:52.331Z,89.71
2022-10-23T10:14:36.112Z,90.40
2022-10-23T10:17:38.402Z,91.05
2022-10-23T10:20:42.602Z,92.27
2022-10-23T10:23:24.363Z,91.12
2022-10-23T10:26:18.978Z,92.49
2022-10-23T10:29:09.515Z,92.56
2022-10-23T10:32:02.955Z,92.38
2022-10-23T10:34:30.545Z,92.11
2022-10-23T10:37:00.175Z,91.96
2022-10-23T10:39:35.349Z,93.27
2022-10-23T10:42:38.928Z,93.40
2022-10-23T10:45:58.329Z,96.39
2022-10-23T10:48:49.742Z,98.06
2022-10-23T10:51:39.162Z,99.02
2022-10-23T10:54:19.084Z,99.92
2022-10-23T10:56:47.674Z,100.00
2022-10-23T10:59:22.478Z,100.00
2022-10-23T11:02:33.239Z,100.00
2022-10-23T11:05:15.330Z,100.00
2022-10-23T11:07:51.284Z,100.00
2022-10-23T11:10:19.104Z,100.00
2022-10-23T11:12:47.714Z,100.00
2022-10-23T11:15:41.254Z,100.00
2022-10-23T11:18:15.703Z,100.00
2022-10-23T11:20:50.947Z,100.00
2022-10-23T11:23:27.824Z,100.00
2022-10-23T11:26:06.603Z,100.00
2022-10-23T11:29:03.990Z,100.00
2022-10-23T11:31:38.932Z,100.00
2022-10-23T11:34:17.648Z,100.00
2022-10-23T11:36:49.959Z,100.00
2022-10-23T11:39:27.923Z,100.00
2022-10-23T11:42:05.097Z,100.00
2022-10-23T11:44:34.544Z,96.67
2022-10-23T11:47:06.561Z,94.38
2022-10-23T11:49:33.146Z,89.64
2022-10-23T11:52:01.696Z,87.50
2022-10-23T11:54:28.728Z,86.01
2022-10-23T11:57:10.342Z,85.40
2022-10-23T11:59:51.432Z,83.34
2022-10-23T12:02:40.551Z,82.38
2022-10-23T12:05:09.621Z,79.49
2022-10-23T12:07:37.516Z,79.65
2022-10-23T12:10:04.098Z,76.95
2022-10-23T12:12:40.881Z,76.94
2022-10-23T12:15:16.359Z,74.27
2022-10-23T12:17:43.907Z,74.88
2022-10-23T12:20:13.757Z,73.87
2022-10-23T12:23:02.131Z,74.98
2022-10-23T12:25:47.432Z,76.61
2022-10-23T12:28:40.211Z,75.30
2022-10-23T12:31:23.611Z,76.89
2022-10-23T12:34:01.601Z,77.00
2022-10-23T12:36:31.121Z,76.09
2022-10-23T12:38:58.750Z,74.44
2022-10-23T12:41:27.779Z,74.83
2022-10-23T12:44:02.915Z,73.23
2022-10-23T12:46:42.469Z,72.32
2022-10-23T12:49:18.119Z,71.56
2022-10-23T12:51:45.279Z,71.42
2022-10-23T12:54:20.147Z,71.93
2022-10-23T12:56:47.312Z,71.61
2022-10-23T12:59:16.940Z,71.39
2022-10-23T13:01:43.916Z,72.45
2022-10-23T13:04:10.819Z,70.81
2022-10-23T13:06:38.737Z,70.57
2022-10-23T13:09:06.663Z,69.73
2022-10-23T13:11:33.438Z,69.90
2022-10-23T13:14:00.048Z,72.49
2022-10-23T13:16:27.132Z,75.38
2022-10-23T13:18:54.479Z,74.67
2022-10-23T13:21:25.886Z,74.28
2022-10-23T13:23:52.918Z,73.82
2022-10-23T13:26:45.207Z,74.69
2022-10-23T13:29:21.615Z,76.55
2022-10-23T13:31:50.202Z,77.08
2022-10-23T13:34:29.695Z,75.28
2022-10-23T13:37:22.022Z,73.47
2022-10-23T13:40:18.985Z,72.33
2022-10-23T13:42:50.186Z,73.06
2022-10-23T13:45:21.277Z,73.94
2022-10-23T13:47:47.798Z,75.44
2022-10-23T13:50:14.452Z,76.56
2022-10-23T13:52:40.952Z,76.73
2022-10-23T13:55:20.959Z,77.69
2022-10-23T13:57:47.623Z,77.77
2022-10-23T14:00:15.311Z,78.36
2022-10-23T14:02:42.102Z,79.21
2022-10-23T14:05:09.360Z,79.16
2022-10-23T14:07:35.912Z,79.61
2022-10-23T14:10:02.453Z,80.31
2022-10-23T14:12:28.972Z,79.97
2022-10-23T14:14:55.474Z,80.82
2022-10-23T14:17:22.048Z,80.06
2022-10-23T14:19:48.557Z,79.68
2022-10-23T14:22:15.073Z,79.71
2022-10-23T14:27:08.168Z,78.70
2022-10-23T14:29:34.808Z,77.58
2022-10-23T14:32:01.404Z,75.85
2022-10-23T14:34:27.933Z,76.19
2022-10-23T14:37:07.975Z,75.40
2022-10-23T14:39:35.522Z,75.04
2022-10-23T14:42:02.014Z,75.00
2022-10-23T14:44:28.828Z,75.47
2022-10-23T14:46:55.482Z,74.92
2022-10-23T14:49:21.978Z,75.52
2022-10-23T14:51:48.492Z,76.27
2022-10-23T14:54:15.806Z,77.38
2022-10-23T14:56:42.459Z,77.79
2022-10-23T14:59:10.721Z,77.89
2022-10-23T15:01:47.232Z,78.23
2022-10-23T15:04:15.600Z,78.42
2022-10-23T15:06:42.874Z,79.13
2022-10-23T15:09:09.406Z,78.76
2022-10-23T15:11:37.434Z,77.92
2022-10-23T15:14:03.965Z,79.30
2022-10-23T15:16:30.783Z,79.86
2022-10-23T15:18:57.614Z,80.46
2022-10-23T15:21:24.206Z,81.73
2022-10-23T15:23:50.805Z,82.00
2022-10-23T15:26:22.900Z,82.67
2022-10-23T15:28:57.482Z,83.38
2022-10-23T15:31:54.562Z,84.64
2022-10-23T15:34:23.673Z,84.31
2022-10-23T15:36:50.791Z,84.96
2022-10-23T15:39:20.830Z,85.93
2022-10-23T15:41:48.068Z,86.85
2022-10-23T15:44:17.116Z,86.15
2022-10-23T15:46:43.886Z,86.91
2022-10-23T15:49:10.657Z,86.91
2022-10-23T15:51:37.999Z,87.32
2022-10-23T15:54:08.964Z,87.01
2022-10-23T15:56:35.625Z,87.95
2022-10-23T15:59:02.800Z,88.32
2022-10-23T16:01:29.471Z,88.19
2022-10-23T16:03:56.107Z,88.54
2022-10-23T16:06:23.008Z,89.28
2022-10-23T16:08:49.582Z,88.94
2022-10-23T16:11:24.663Z,89.40
2022-10-23T16:13:51.435Z,89.48
2022-10-23T16:16:18.283Z,88.91
2022-10-23T16:18:45.771Z,89.61
2022-10-23T16:21:20.225Z,90.59
2022-10-23T16:23:48.673Z,91.69
2022-10-23T16:26:17.572Z,91.88
2022-10-23T16:28:47.136Z,90.95
2022-10-23T16:31:20.365Z,91.51
2022-10-23T16:33:48.121Z,91.92
2022-10-23T16:36:14.739Z,91.20
2022-10-23T16:38:41.309Z,90.44
2022-10-23T16:41:07.915Z,91.58
2022-10-23T16:43:34.441Z,91.48
2022-10-23T16:46:21.674Z,89.97
2022-10-23T16:48:50.107Z,90.51
2022-10-23T16:51:19.385Z,89.25
2022-10-23T16:53:46.470Z,90.35
2022-10-23T16:56:18.071Z,91.35
2022-10-23T16:58:44.997Z,91.17
2022-10-23T17:01:19.123Z,91.68
2022-10-23T17:03:48.308Z,92.34
2022-10-23T17:06:18.708Z,93.37
2022-10-23T17:08:45.935Z,93.23
2022-10-23T17:11:18.048Z,93.07
2022-10-23T17:13:47.284Z,93.22
2022-10-23T17:16:21.235Z,93.73
2022-10-23T17:18:48.478Z,93.08
2022-10-23T17:21:16.810Z,93.82
2022-10-23T17:23:43.804Z,93.01
2022-10-23T17:26:12.561Z,92.77
2022-10-23T17:28:43.310Z,92.49
2022-10-23T17:31:21.016Z,94.29
2022-10-23T17:33:49.199Z,96.97
2022-10-23T17:36:16.448Z,96.18
2022-10-23T17:39:03.283Z,94.73
2022-10-23T17:41:29.786Z,94.79
2022-10-23T17:43:57.611Z,94.36
2022-10-23T17:46:25.063Z,94.27
2022-10-23T17:48:51.569Z,95.18
2022-10-23T17:51:20.951Z,95.27
2022-10-23T17:53:49.191Z,94.48
2022-10-23T17:56:27.607Z,94.77
2022-10-23T17:58:56.571Z,93.40
2022-10-23T18:01:25.141Z,93.46
2022-10-23T18:03:52.830Z,93.21
2022-10-23T18:06:28.878Z,93.77
2022-10-23T18:08:56.633Z,94.30
2022-10-23T18:11:25.360Z,95.90
2022-10-23T18:13:52.294Z,96.94
2022-10-23T18:16:19.363Z,97.67
2022-10-23T18:18:51.746Z,98.38
2022-10-23T18:21:20.104Z,99.47
2022-10-23T18:23:46.936Z,99.02
2022-10-23T18:26:18.781Z,98.91
2022-10-23T18:28:47.486Z,98.30
2022-10-23T18:31:15.779Z,99.02
2022-10-23T18:33:42.951Z,97.21
2022-10-23T18:36:13.885Z,97.68
2022-10-23T18:38:40.730Z,99.81
2022-10-23T18:41:07.197Z,99.06
2022-10-23T18:43:44.894Z,97.97
2022-10-23T18:46:14.930Z,98.24
2022-10-23T18:48:43.382Z,96.98
2022-10-23T18:51:15.876Z,95.66
2022-10-23T18:53:43.247Z,95.85
2022-10-23T18:56:09.701Z,94.87
2022-10-23T18:58:36.135Z,94.60
2022-10-23T19:01:02.731Z,96.48
2022-10-23T19:03:29.319Z,97.97
2022-10-23T19:05:55.850Z,98.06
2022-10-23T19:08:22.528Z,97.63
2022-10-23T19:10:50.520Z,98.37
2022-10-23T19:13:17.120Z,97.22
2022-10-23T19:15:44.366Z,97.08
2022-10-23T19:18:11.089Z,96.93
2022-10-23T19:20:37.602Z,99.41
2022-10-23T19:23:05.674Z,98.33
2022-10-23T19:25:34.558Z,99.52
2022-10-23T19:28:02.310Z,98.63
2022-10-23T19:30:29.382Z,97.90
2022-10-23T19:32:55.912Z,98.70
2022-10-23T19:35:22.656Z,98.09
2022-10-23T19:37:49.544Z,96.83
2022-10-23T19:40:16.254Z,97.27
2022-10-23T19:42:43.138Z,98.75
2022-10-23T19:45:12.240Z,97.88
2022-10-23T19:47:39.298Z,98.00
2022-10-23T19:50:06.706Z,97.58
2022-10-23T19:52:34.563Z,98.09
2022-10-23T19:55:04.580Z,97.80
2022-10-23T19:57:33.855Z,98.19
2022-10-23T20:00:01.131Z,100.00
2022-10-23T20:02:28.251Z,100.00
2022-10-23T20:04:55.229Z,98.99
2022-10-23T20:07:21.680Z,99.56
2022-10-23T20:09:48.723Z,99.47
2022-10-23T20:12:15.218Z,98.55
2022-10-23T20:14:41.694Z,98.75
2022-10-23T20:17:08.315Z,98.17
2022-10-23T20:19:35.007Z,98.44
2022-10-23T20:22:01.483Z,100.00
2022-10-23T20:24:28.030Z,100.00
2022-10-23T20:26:55.687Z,99.57
2022-10-23T20:29:22.931Z,99.18
2022-10-23T20:31:52.914Z,100.00
2022-10-23T20:34:19.582Z,98.12
2022-10-23T20:36:48.808Z,97.74
2022-10-23T20:39:18.262Z,98.00
2022-10-23T20:41:45.138Z,98.85
2022-10-23T20:44:13.904Z,98.94
2022-10-23T20:46:40.827Z,98.99
2022-10-23T20:49:07.392Z,98.49
2022-10-23T20:51:35.723Z,99.23
2022-10-23T20:54:02.551Z,99.51
2022-10-23T20:56:34.379Z,99.38
2022-10-23T20:59:12.201Z,100.00
2022-10-23T21:01:50.633Z,100.00
2022-10-23T21:04:20.093Z,100.00
2022-10-23T21:07:08.336Z,100.00
2022-10-23T21:09:33.308Z,100.00
2022-10-23T21:11:59.765Z,100.00
2022-10-23T21:14:27.185Z,100.00
2022-10-23T21:16:53.617Z,100.00
2022-10-23T21:19:20.071Z,100.00
2022-10-23T21:21:46.819Z,100.00
2022-10-23T21:24:17.038Z,99.19
2022-10-23T21:26:44.500Z,99.87
2022-10-23T21:29:20.098Z,100.00
2022-10-23T21:31:57.968Z,100.00
2022-10-23T21:34:25.590Z,100.00
2022-10-23T21:37:12.889Z,100.00
2022-10-23T21:39:38.714Z,100.00
2022-10-23T21:42:05.215Z,100.00
2022-10-23T21:44:31.648Z,100.00
2022-10-23T21:46:58.102Z,100.00
2022-10-23T21:49:24.540Z,100.00
2022-10-23T21:51:51.018Z,99.47
2022-10-23T21:54:17.513Z,99.93
2022-10-23T21:56:45.375Z,100.00
2022-10-23T21:59:22.610Z,100.00
2022-10-23T22:01:49.486Z,100.00
2022-10-23T22:04:17.487Z,100.00
2022-10-23T22:06:44.978Z,100.00
2022-10-23T22:09:18.970Z,100.00
2022-10-23T22:11:45.494Z,100.00
2022-10-23T22:14:11.951Z,99.92
2022-10-23T22:16:38.459Z,100.00
2022-10-23T22:19:04.931Z,100.00
2022-10-23T22:21:31.755Z,100.00
2022-10-23T22:23:59.859Z,100.00
2022-10-23T22:26:34.239Z,100.00
2022-10-23T22:29:06.421Z,100.00
2022-10-23T22:31:34.134Z,100.00
2022-10-23T22:34:13.097Z,100.00
2022-10-23T22:36:48.593Z,100.00
2022-10-23T22:39:15.040Z,100.00
2022-10-23T22:41:43.570Z,100.00
2022-10-23T22:44:11.584Z,100.00
2022-10-23T22:46:38.468Z,100.00
2022-10-23T22:51:32.418Z,100.00
2022-10-23T22:53:59.402Z,100.00
2022-10-23T22:56:27.922Z,100.00
2022-10-23T22:58:55.127Z,100.00
2022-10-23T23:01:27.793Z,100.00
2022-10-23T23:03:54.853Z,100.00
2022-10-23T23:06:21.881Z,100.00
2022-10-23T23:08:49.792Z,100.00
2022-10-23T23:11:17.710Z,100.00
2022-10-23T23:13:44.848Z,99.45
2022-10-23T23:16:28.587Z,99.45
2022-10-23T23:18:59.747Z,99.46
2022-10-23T23:21:26.712Z,98.93
2022-10-23T23:23:53.422Z,99.07
2022-10-23T23:26:20.039Z,99.31
2022-10-23T23:28:50.063Z,99.05
2022-10-23T23:31:18.961Z,99.13
2022-10-23T23:33:45.638Z,99.16
2022-10-23T23:36:13.890Z,100.00
2022-10-23T23:38:41.355Z,99.98
2022-10-23T23:41:12.511Z,100.00
2022-10-23T23:43:38.951Z,100.00
2022-10-23T23:46:05.698Z,100.00
2022-10-23T23:48:32.232Z,100.00
2022-10-23T23:50:58.655Z,100.00
2022-10-23T23:53:25.347Z,99.79
2022-10-23T23:55:51.789Z,100.00
2022-10-23T23:58:18.202Z,99.25
